createdAt,value
2024-01-05T00:02:14.287Z,99924.44
2024-01-05T00:04:42.829Z,99916.66
2024-01-05T00:07:14.241Z,99909.34
2024-01-05T00:09:46.160Z,99908.00
2024-01-05T00:12:14.466Z,99902.88
2024-01-05T00:14:48.590Z,99883.38
2024-01-05T00:17:19.694Z,99887.88
2024-01-05T00:19:47.985Z,99899.81
2024-01-05T00:22:16.285Z,99903.94
2024-01-05T00:24:45.882Z,99887.50
2024-01-05T00:27:20.320Z,99887.53
2024-01-05T00:29:51.388Z,99882.28
2024-01-05T00:32:19.700Z,99874.19
2024-01-05T00:34:50.446Z,99867.19
2024-01-05T00:37:18.948Z,99869.03
2024-01-05T00:39:53.066Z,99856.13
2024-01-05T00:42:24.206Z,99861.47
2024-01-05T00:44:53.025Z,99866.09
2024-01-05T00:47:27.514Z,99862.72
2024-01-05T00:49:58.724Z,99865.97
2024-01-05T00:52:27.077Z,99860.28
2024-01-05T00:55:00.041Z,99858.47
2024-01-05T00:57:43.399Z,99860.03
2024-01-05T01:00:13.170Z,99848.09
2024-01-05T01:02:44.619Z,99840.69
2024-01-05T01:05:15.845Z,99851.09
2024-01-05T01:07:44.112Z,99844.06
2024-01-05T01:10:16.548Z,99831.28
2024-01-05T01:12:52.792Z,99836.78
2024-01-05T01:15:21.414Z,99835.69
2024-01-05T01:17:50.101Z,99827.84
2024-01-05T01:20:18.852Z,99824.56
2024-01-05T01:22:56.170Z,99828.75
2024-01-05T01:25:25.830Z,99825.09
2024-01-05T01:28:00.217Z,99824.06
2024-01-05T01:30:28.603Z,99827.03
2024-01-05T01:32:56.978Z,99823.44
2024-01-05T01:35:25.574Z,99815.06
2024-01-05T01:38:05.856Z,99807.84
2024-01-05T01:40:39.522Z,99811.09
2024-01-05T01:43:17.977Z,99805.53
2024-01-05T01:45:50.389Z,99807.25
2024-01-05T01:48:21.999Z,99803.56
2024-01-05T01:50:52.192Z,99794.13
2024-01-05T01:53:24.005Z,99805.66
2024-01-05T01:56:01.536Z,99800.16
2024-01-05T01:58:29.866Z,99801.78
2024-01-05T02:01:14.627Z,99785.28
2024-01-05T02:03:55.388Z,99785.63
2024-01-05T02:06:23.911Z,99785.84
2024-01-05T02:08:53.351Z,99786.09
2024-01-05T02:11:29.143Z,99778.19
2024-01-05T02:14:00.457Z,99780.84
2024-01-05T02:16:28.991Z,99771.38
2024-01-05T02:19:03.655Z,99773.59
2024-01-05T02:21:41.854Z,99775.00
2024-01-05T02:24:16.935Z,99769.44
2024-01-05T02:26:54.634Z,99771.03
2024-01-05T02:29:26.014Z,99767.03
2024-01-05T02:31:55.074Z,99749.75
2024-01-05T02:34:26.289Z,99746.19
2024-01-05T02:36:57.623Z,99739.25
2024-01-05T02:39:27.514Z,99739.53
2024-01-05T02:42:02.282Z,99736.75
2024-01-05T02:44:30.555Z,99736.34
2024-01-05T02:47:01.595Z,99738.44
2024-01-05T02:49:29.963Z,99732.81
2024-01-05T02:52:04.183Z,99731.03
2024-01-05T02:54:54.797Z,99728.44
2024-01-05T02:57:23.126Z,99721.88
2024-01-05T02:59:51.508Z,99729.91
2024-01-05T03:02:19.827Z,99722.16
2024-01-05T03:04:48.290Z,99722.59
2024-01-05T03:07:16.672Z,99722.88
2024-01-05T03:09:48.129Z,99718.19
2024-01-05T03:12:18.210Z,99716.81
2024-01-05T03:14:49.599Z,99724.09
2024-01-05T03:17:20.049Z,99710.53
2024-01-05T03:19:48.335Z,99707.84
2024-01-05T03:22:16.609Z,99703.59
2024-01-05T03:24:47.685Z,99702.38
2024-01-05T03:27:20.490Z,99698.34
2024-01-05T03:29:55.021Z,99698.41
2024-01-05T03:32:29.761Z,99691.94
2024-01-05T03:35:01.134Z,99685.94
2024-01-05T03:37:40.703Z,99674.59
2024-01-05T03:40:10.657Z,99676.28
2024-01-05T03:42:45.724Z,99672.16
2024-01-05T03:45:14.116Z,99677.66
2024-01-05T03:47:48.293Z,99672.50
2024-01-05T03:50:20.383Z,99669.66
2024-01-05T03:52:51.756Z,99666.72
2024-01-05T03:55:20.016Z,99668.34
2024-01-05T03:57:55.753Z,99675.00
2024-01-05T04:00:24.025Z,99667.13
2024-01-05T04:02:55.176Z,99666.22
2024-01-05T04:05:27.413Z,99657.00
2024-01-05T04:07:55.759Z,99652.94
2024-01-05T04:10:26.170Z,99654.78
2024-01-05T04:12:59.045Z,99658.94
2024-01-05T04:15:27.342Z,99657.84
2024-01-05T04:17:55.808Z,99652.63
2024-01-05T04:20:24.207Z,99657.13
2024-01-05T04:22:52.522Z,99650.69
2024-01-05T04:25:20.786Z,99647.09
2024-01-05T04:27:55.225Z,99642.69
2024-01-05T04:30:25.582Z,99644.00
2024-01-05T04:32:57.201Z,99635.44
2024-01-05T04:35:28.389Z,99645.88
2024-01-05T04:37:57.283Z,99644.34
2024-01-05T04:40:25.981Z,99637.38
2024-01-05T04:42:57.074Z,99639.84
2024-01-05T04:45:26.855Z,99640.06
2024-01-05T04:47:56.857Z,99626.69
2024-01-05T04:50:25.166Z,99621.88
2024-01-05T04:52:53.677Z,99623.22
2024-01-05T04:55:22.501Z,99622.31
2024-01-05T04:57:53.632Z,99609.06
2024-01-05T05:00:26.298Z,99608.66
2024-01-05T05:02:55.104Z,99596.34
2024-01-05T05:05:23.854Z,99596.00
2024-01-05T05:07:54.904Z,99596.09
2024-01-05T05:10:24.111Z,99595.50
2024-01-05T05:12:55.458Z,99580.47
2024-01-05T05:15:23.812Z,99575.59
2024-01-05T05:17:59.037Z,99572.78
2024-01-05T05:20:28.039Z,99569.75
2024-01-05T05:22:56.288Z,99569.19
2024-01-05T05:25:24.704Z,99577.38
2024-01-05T05:27:52.993Z,99561.16
2024-01-05T05:30:27.457Z,99566.81
2024-01-05T05:32:57.316Z,99554.56
2024-01-05T05:35:31.287Z,99553.09
2024-01-05T05:37:59.509Z,99549.84
2024-01-05T05:40:27.852Z,99551.72
2024-01-05T05:42:56.368Z,99544.34
2024-01-05T05:45:24.694Z,99541.38
2024-01-05T05:47:57.456Z,99529.91
2024-01-05T05:50:28.580Z,99537.28
2024-01-05T05:53:04.930Z,99534.16
2024-01-05T05:55:35.931Z,99532.06
2024-01-05T05:58:08.978Z,99542.56
2024-01-05T06:00:37.755Z,99540.50
2024-01-05T06:03:14.519Z,99534.22
2024-01-05T06:05:43.353Z,99539.75
2024-01-05T06:08:17.632Z,99546.06
2024-01-05T06:10:46.045Z,99533.81
2024-01-05T06:13:19.356Z,99536.69
2024-01-05T06:15:47.619Z,99540.78
2024-01-05T06:18:20.436Z,99535.53
2024-01-05T06:20:54.913Z,99541.91
2024-01-05T06:23:26.020Z,99544.78
2024-01-05T06:25:54.300Z,99544.09
2024-01-05T06:28:27.899Z,99539.72
2024-01-05T06:31:04.965Z,99545.28
2024-01-05T06:33:39.817Z,99534.69
2024-01-05T06:36:09.092Z,99543.13
2024-01-05T06:38:37.662Z,99542.34
2024-01-05T06:41:18.140Z,99541.78
2024-01-05T06:43:46.685Z,99536.81
2024-01-05T06:46:14.940Z,99548.16
2024-01-05T06:48:44.730Z,99552.78
2024-01-05T06:51:16.311Z,99546.53
2024-01-05T06:53:50.232Z,99547.31
2024-01-05T06:56:19.892Z,99546.22
2024-01-05T06:58:49.293Z,99546.25
2024-01-05T07:01:20.927Z,99546.06
2024-01-05T07:03:56.755Z,99547.84
2024-01-05T07:06:25.377Z,99541.78
2024-01-05T07:08:56.838Z,99539.66
2024-01-05T07:11:26.228Z,99543.59
2024-01-05T07:13:58.011Z,99548.47
2024-01-05T07:16:26.749Z,99542.88
2024-01-05T07:18:55.640Z,99544.94
2024-01-05T07:21:24.116Z,99545.78
2024-01-05T07:24:00.016Z,99561.69
2024-01-05T07:26:28.388Z,99554.34
2024-01-05T07:28:56.665Z,99556.50
2024-01-05T07:31:25.205Z,99556.66
2024-01-05T07:33:58.078Z,99562.00
2024-01-05T07:36:26.490Z,99572.25
2024-01-05T07:39:00.119Z,99570.69
2024-01-05T07:41:28.770Z,99573.47
2024-01-05T07:43:59.188Z,99575.19
2024-01-05T07:46:28.436Z,99573.56
2024-01-05T07:48:58.274Z,99571.25
2024-01-05T07:51:26.953Z,99563.13
2024-01-05T07:53:58.197Z,99572.88
2024-01-05T07:56:26.495Z,99578.31
2024-01-05T07:58:54.733Z,99581.44
2024-01-05T08:01:28.941Z,99577.34
2024-01-05T08:03:58.770Z,99571.00
2024-01-05T08:06:27.257Z,99570.59
2024-01-05T08:08:55.950Z,99564.75
2024-01-05T08:11:24.558Z,99563.97
2024-01-05T08:13:53.679Z,99566.72
2024-01-05T08:16:22.212Z,99562.28
2024-01-05T08:18:53.893Z,99562.03
2024-01-05T08:21:29.993Z,99567.03
2024-01-05T08:23:58.666Z,99563.34
2024-01-05T08:26:29.453Z,99560.91
2024-01-05T08:29:04.057Z,99557.34
2024-01-05T08:31:32.985Z,99555.56
2024-01-05T08:34:05.054Z,99559.84
2024-01-05T08:36:35.422Z,99562.09
2024-01-05T08:39:07.654Z,99561.78
2024-01-05T08:41:36.313Z,99574.84
2024-01-05T08:44:08.012Z,99562.84
2024-01-05T08:46:36.653Z,99567.19
2024-01-05T08:49:08.511Z,99575.00
2024-01-05T08:51:47.060Z,99581.09
2024-01-05T08:54:18.729Z,99577.53
2024-01-05T08:56:50.058Z,99594.38
2024-01-05T08:59:21.703Z,99592.78
2024-01-05T09:01:50.325Z,99596.75
2024-01-05T09:04:18.980Z,99603.88
2024-01-05T09:06:52.529Z,99601.19
2024-01-05T09:09:27.198Z,99586.19
2024-01-05T09:11:55.822Z,99594.41
2024-01-05T09:14:31.931Z,99607.41
2024-01-05T09:17:01.023Z,99597.19
2024-01-05T09:19:36.671Z,99612.22
2024-01-05T09:22:08.351Z,99609.66
2024-01-05T09:24:37.084Z,99609.63
2024-01-05T09:27:06.022Z,99615.38
2024-01-05T09:29:35.074Z,99608.97
2024-01-05T09:32:07.001Z,99631.88
2024-01-05T09:34:38.770Z,99610.91
2024-01-05T09:37:09.224Z,99618.91
2024-01-05T09:39:37.842Z,99622.00
2024-01-05T09:42:11.890Z,99616.78
2024-01-05T09:44:40.901Z,99630.47
2024-01-05T09:47:16.496Z,99621.06
2024-01-05T09:49:47.442Z,99631.94
2024-01-05T09:52:20.534Z,99624.69
2024-01-05T09:54:57.497Z,99626.78
2024-01-05T09:57:32.363Z,99631.56
2024-01-05T10:00:08.705Z,99624.88
2024-01-05T10:02:45.049Z,99622.41
2024-01-05T10:05:16.723Z,99626.03
2024-01-05T10:07:47.091Z,99625.03
2024-01-05T10:10:15.640Z,99617.13
2024-01-05T10:12:44.318Z,99622.38
2024-01-05T10:15:21.922Z,99622.06
2024-01-05T10:17:53.624Z,99632.72
2024-01-05T10:20:22.940Z,99604.16
2024-01-05T10:22:52.921Z,99617.28
2024-01-05T10:25:23.323Z,99619.28
2024-01-05T10:27:57.928Z,99617.66
2024-01-05T10:30:31.726Z,99616.44
2024-01-05T10:33:19.830Z,99614.00
2024-01-05T10:35:54.104Z,99630.50
2024-01-05T10:38:30.657Z,99622.97
2024-01-05T10:41:08.847Z,99621.22
2024-01-05T10:43:37.940Z,99623.66
2024-01-05T10:46:07.474Z,99614.63
2024-01-05T10:48:41.858Z,99626.41
2024-01-05T10:51:17.742Z,99612.66
2024-01-05T10:53:51.720Z,99619.81
2024-01-05T10:56:21.559Z,99624.91
2024-01-05T10:58:50.835Z,99617.47
2024-01-05T11:01:22.982Z,99622.41
2024-01-05T11:03:55.729Z,99618.63
2024-01-05T11:06:27.830Z,99621.22
2024-01-05T11:09:14.793Z,99626.34
2024-01-05T11:12:07.040Z,99625.16
2024-01-05T11:15:08.661Z,99629.06
2024-01-05T11:18:19.219Z,99628.44
2024-01-05T11:21:12.953Z,99632.31
2024-01-05T11:23:43.518Z,99638.09
2024-01-05T11:26:36.742Z,99622.00
2024-01-05T11:29:14.959Z,99628.06
2024-01-05T11:31:54.115Z,99631.44
2024-01-05T11:34:37.196Z,99628.13
2024-01-05T11:37:06.988Z,99621.63
2024-01-05T11:39:45.214Z,99622.03
2024-01-05T11:42:45.924Z,99626.84
2024-01-05T11:45:50.293Z,99618.03
2024-01-05T11:48:49.687Z,99625.31
2024-01-05T11:51:21.719Z,99611.16
2024-01-05T11:53:53.973Z,99614.38
2024-01-05T11:56:26.369Z,99613.94
2024-01-05T11:59:05.365Z,99618.09
2024-01-05T12:01:40.107Z,99614.44
2024-01-05T12:04:08.712Z,99608.75
2024-01-05T12:06:37.344Z,99610.28
2024-01-05T12:09:12.000Z,99604.47
2024-01-05T12:11:40.806Z,99605.31
2024-01-05T12:14:13.509Z,99610.13
2024-01-05T12:16:42.019Z,99616.34
2024-01-05T12:19:22.740Z,99605.16
2024-01-05T12:21:54.119Z,99592.44
2024-01-05T12:24:23.227Z,99606.53
2024-01-05T12:26:55.241Z,99610.47
2024-01-05T12:29:28.310Z,99611.78
2024-01-05T12:31:56.796Z,99613.88
2024-01-05T12:34:25.662Z,99617.00
2024-01-05T12:37:08.673Z,99615.66
2024-01-05T12:39:46.306Z,99616.50
2024-01-05T12:42:19.924Z,99614.22
2024-01-05T12:44:50.980Z,99623.91
2024-01-05T12:47:30.329Z,99618.44
2024-01-05T12:49:59.050Z,99622.34
2024-01-05T12:52:40.574Z,99609.53
2024-01-05T12:56:17.396Z,99617.16
2024-01-05T12:58:47.388Z,99619.09
2024-01-05T13:01:24.870Z,99621.16
2024-01-05T13:03:55.188Z,99619.31
2024-01-05T13:06:25.819Z,99623.63
2024-01-05T13:08:58.409Z,99618.59
2024-01-05T13:11:30.260Z,99624.63
2024-01-05T13:14:02.006Z,99624.88
2024-01-05T13:16:35.493Z,99626.34
2024-01-05T13:19:09.487Z,99626.69
2024-01-05T13:21:38.263Z,99626.00
2024-01-05T13:24:08.016Z,99626.75
2024-01-05T13:26:41.811Z,99623.75
2024-01-05T13:29:16.663Z,99629.94
2024-01-05T13:31:47.943Z,99630.22
2024-01-05T13:34:22.255Z,99628.59
2024-01-05T13:37:01.209Z,99621.16
2024-01-05T13:39:32.000Z,99628.00
2024-01-05T13:42:09.689Z,99619.44
2024-01-05T13:44:37.989Z,99632.56
2024-01-05T13:47:15.188Z,99634.34
2024-01-05T13:49:58.297Z,99631.22
2024-01-05T13:52:26.587Z,99633.25
2024-01-05T13:54:55.176Z,99640.25
2024-01-05T13:57:26.895Z,99634.56
2024-01-05T13:59:57.939Z,99640.84
2024-01-05T14:02:39.623Z,99638.47
2024-01-05T14:05:11.470Z,99632.25
2024-01-05T14:07:45.916Z,99637.34
2024-01-05T14:10:20.655Z,99644.53
2024-01-05T14:12:56.944Z,99648.59
2024-01-05T14:15:27.029Z,99640.16
2024-01-05T14:17:57.017Z,99646.28
2024-01-05T14:20:31.907Z,99653.88
2024-01-05T14:23:09.420Z,99653.72
2024-01-05T14:25:38.880Z,99658.44
2024-01-05T14:28:07.740Z,99659.28
2024-01-05T14:30:36.421Z,99653.75
2024-01-05T14:33:08.743Z,99651.16
2024-01-05T14:35:47.577Z,99657.56
2024-01-05T14:38:23.607Z,99656.44
2024-01-05T14:41:05.709Z,99663.75
2024-01-05T14:43:46.588Z,99662.41
2024-01-05T14:46:20.485Z,99651.28
2024-01-05T14:48:50.402Z,99658.44
2024-01-05T14:51:21.608Z,99658.88
2024-01-05T14:53:56.021Z,99660.16
2024-01-05T14:56:27.477Z,99662.75
2024-01-05T14:58:55.749Z,99651.72
2024-01-05T15:01:26.793Z,99666.47
2024-01-05T15:03:55.554Z,99664.50
2024-01-05T15:06:24.869Z,99667.56
2024-01-05T15:08:59.337Z,99661.47
2024-01-05T15:11:36.846Z,99667.78
2024-01-05T15:14:09.976Z,99666.38
2024-01-05T15:16:42.360Z,99667.63
2024-01-05T15:19:24.427Z,99669.81
2024-01-05T15:21:57.138Z,99671.66
2024-01-05T15:24:28.552Z,99663.28
2024-01-05T15:26:56.821Z,99676.22
2024-01-05T15:29:27.272Z,99672.44
2024-01-05T15:31:56.090Z,99683.19
2024-01-05T15:34:28.646Z,99676.84
2024-01-05T15:37:02.444Z,99685.94
2024-01-05T15:39:45.326Z,99688.22
2024-01-05T15:42:16.522Z,99676.28
2024-01-05T15:44:44.812Z,99691.13
2024-01-05T15:47:20.901Z,99697.56
2024-01-05T15:49:59.136Z,99700.44
2024-01-05T15:52:31.828Z,99685.97
2024-01-05T15:55:02.950Z,99683.91
2024-01-05T15:57:31.277Z,99695.44
2024-01-05T15:59:59.582Z,99691.22
2024-01-05T16:02:30.666Z,99695.94
2024-01-05T16:05:02.838Z,99698.59
2024-01-05T16:07:35.963Z,99700.41
2024-01-05T16:10:08.155Z,99698.88
2024-01-05T16:12:38.667Z,99706.19
2024-01-05T16:15:22.353Z,99708.16
2024-01-05T16:17:51.517Z,99717.06
2024-01-05T16:20:21.571Z,99709.03
2024-01-05T16:22:53.111Z,99714.38
2024-01-05T16:25:27.579Z,99709.38
2024-01-05T16:27:56.321Z,99727.22
2024-01-05T16:30:28.017Z,99716.06
2024-01-05T16:32:56.359Z,99720.47
2024-01-05T16:35:36.801Z,99730.97
2024-01-05T16:38:08.371Z,99719.00
2024-01-05T16:40:36.955Z,99726.19
2024-01-05T16:43:11.477Z,99721.00
2024-01-05T16:45:42.281Z,99731.03
2024-01-05T16:48:12.044Z,99730.47
2024-01-05T16:50:52.545Z,99729.44
2024-01-05T16:53:21.204Z,99738.69
2024-01-05T16:55:49.738Z,99730.22
2024-01-05T16:58:18.301Z,99739.53
2024-01-05T17:00:50.010Z,99734.78
2024-01-05T17:03:21.852Z,99742.97
2024-01-05T17:05:51.863Z,99743.38
2024-01-05T17:08:20.541Z,99749.13
2024-01-05T17:10:57.992Z,99740.94
2024-01-05T17:13:28.456Z,99741.91
2024-01-05T17:15:57.046Z,99742.47
2024-01-05T17:18:26.735Z,99744.13
2024-01-05T17:20:56.678Z,99742.94
2024-01-05T17:23:29.356Z,99746.91
2024-01-05T17:25:58.427Z,99752.75
2024-01-05T17:28:27.724Z,99751.94
2024-01-05T17:31:01.952Z,99756.09
2024-01-05T17:33:30.313Z,99752.81
2024-01-05T17:36:00.249Z,99772.72
2024-01-05T17:38:28.793Z,99760.19
2024-01-05T17:41:00.431Z,99763.59
2024-01-05T17:43:37.129Z,99764.38
2024-01-05T17:46:06.475Z,99767.34
2024-01-05T17:48:42.176Z,99761.91
2024-01-05T17:51:14.787Z,99767.88
2024-01-05T17:54:02.758Z,99773.56
2024-01-05T17:56:34.277Z,99784.75
2024-01-05T17:59:09.186Z,99787.75
2024-01-05T18:01:45.486Z,99782.38
2024-01-05T18:04:17.858Z,99789.69
2024-01-05T18:06:48.089Z,99791.00
2024-01-05T18:09:20.181Z,99799.81
2024-01-05T18:11:48.775Z,99801.09
2024-01-05T18:14:17.405Z,99795.41
2024-01-05T18:16:50.714Z,99803.56
2024-01-05T18:19:22.560Z,99812.47
2024-01-05T18:21:53.107Z,99813.78
2024-01-05T18:24:28.176Z,99818.63
2024-01-05T18:26:56.861Z,99801.94
2024-01-05T18:29:29.809Z,99824.25
2024-01-05T18:31:59.784Z,99816.41
2024-01-05T18:34:28.572Z,99819.38
2024-01-05T18:36:58.657Z,99824.69
2024-01-05T18:39:27.260Z,99825.69
2024-01-05T18:41:58.879Z,99823.88
2024-01-05T18:44:33.177Z,99835.97
2024-01-05T18:47:01.733Z,99831.50
2024-01-05T18:49:31.012Z,99833.09
2024-01-05T18:52:05.838Z,99840.63
2024-01-05T18:54:37.308Z,99851.59
2024-01-05T18:57:12.743Z,99854.19
2024-01-05T18:59:41.906Z,99850.88
2024-01-05T19:02:10.445Z,99851.94
2024-01-05T19:04:39.927Z,99859.31
2024-01-05T19:07:09.609Z,99858.59
2024-01-05T19:09:38.665Z,99868.34
2024-01-05T19:12:09.164Z,99871.94
2024-01-05T19:14:44.194Z,99879.72
2024-01-05T19:17:15.757Z,99894.44
2024-01-05T19:19:44.483Z,99891.41
2024-01-05T19:22:14.529Z,99884.06
2024-01-05T19:24:48.029Z,99887.31
2024-01-05T19:27:20.621Z,99897.69
2024-01-05T19:29:55.152Z,99898.31
2024-01-05T19:32:28.402Z,99909.38
2024-01-05T19:35:04.646Z,99914.66
2024-01-05T19:37:40.783Z,99919.84
2024-01-05T19:40:11.717Z,99923.09
2024-01-05T19:42:46.698Z,99926.66
2024-01-05T19:45:18.368Z,99929.34
2024-01-05T19:48:06.957Z,99932.19
2024-01-05T19:50:38.403Z,99937.22
2024-01-05T19:53:11.198Z,99932.59
2024-01-05T19:55:45.632Z,99936.53
2024-01-05T19:58:13.911Z,99937.44
2024-01-05T20:00:50.265Z,99936.19
2024-01-05T20:03:21.489Z,99945.97
2024-01-05T20:05:52.994Z,99941.09
2024-01-05T20:08:22.934Z,99949.66
2024-01-05T20:10:54.866Z,99952.88
2024-01-05T20:13:26.488Z,99951.97
2024-01-05T20:15:55.130Z,99947.66
2024-01-05T20:18:42.270Z,99954.25
2024-01-05T20:21:15.692Z,99951.75
2024-01-05T20:23:48.405Z,99958.56
2024-01-05T20:26:23.307Z,99947.84
2024-01-05T20:28:57.967Z,99950.03
2024-01-05T20:31:26.866Z,99959.56
2024-01-05T20:33:57.813Z,99955.25
2024-01-05T20:36:27.369Z,99953.22
2024-01-05T20:38:59.070Z,99953.19
2024-01-05T20:41:31.554Z,99971.56
2024-01-05T20:44:06.165Z,99976.88
2024-01-05T20:46:46.168Z,99976.38
2024-01-05T20:49:18.345Z,99978.53
2024-01-05T20:51:47.276Z,99978.50
2024-01-05T20:54:20.313Z,99972.94
2024-01-05T20:56:48.882Z,99978.84
2024-01-05T20:59:20.309Z,99967.09
2024-01-05T21:01:57.785Z,99976.34
2024-01-05T21:04:26.649Z,99973.00
2024-01-05T21:07:02.493Z,99965.06
2024-01-05T21:09:32.269Z,99974.81
2024-01-05T21:12:00.547Z,99974.81
2024-01-05T21:14:34.677Z,99979.81
2024-01-05T21:17:06.175Z,99983.69
2024-01-05T21:19:34.558Z,99982.69
2024-01-05T21:22:04.138Z,99987.91
2024-01-05T21:24:34.590Z,99981.22
2024-01-05T21:27:10.877Z,99981.25
2024-01-05T21:29:42.871Z,99990.22
2024-01-05T21:32:11.277Z,99975.84
2024-01-05T21:34:42.135Z,99980.66
2024-01-05T21:37:12.250Z,99969.69
2024-01-05T21:39:42.227Z,99979.38
2024-01-05T21:42:11.525Z,99971.09
2024-01-05T21:44:39.949Z,99979.22
2024-01-05T21:47:10.483Z,99982.91
2024-01-05T21:49:41.668Z,99989.47
2024-01-05T21:52:10.247Z,99992.88
2024-01-05T21:54:38.953Z,100001.91
2024-01-05T21:57:09.023Z,100010.28
2024-01-05T21:59:44.550Z,100008.56
2024-01-05T22:02:13.236Z,100006.22
2024-01-05T22:04:48.904Z,100004.00
2024-01-05T22:07:20.369Z,100007.34
2024-01-05T22:09:51.885Z,100006.88
2024-01-05T22:12:21.613Z,100005.59
2024-01-05T22:14:49.937Z,100008.53
2024-01-05T22:17:18.581Z,100006.41
2024-01-05T22:19:52.546Z,100010.97
2024-01-05T22:22:27.601Z,100013.63
2024-01-05T22:24:57.061Z,100011.78
2024-01-05T22:27:27.437Z,100014.81
2024-01-05T22:30:01.993Z,100011.25
2024-01-05T22:32:32.026Z,100023.13
2024-01-05T22:35:07.897Z,100031.56
2024-01-05T22:37:36.202Z,100029.84
2024-01-05T22:40:04.858Z,100033.72
2024-01-05T22:42:34.883Z,100040.34
2024-01-05T22:45:03.543Z,100031.56
2024-01-05T22:47:32.320Z,100044.03
2024-01-05T22:50:01.187Z,100055.19
2024-01-05T22:52:33.268Z,100042.69
2024-01-05T22:55:04.181Z,100040.81
2024-01-05T22:57:34.242Z,100035.47
2024-01-05T23:00:09.305Z,100039.09
2024-01-05T23:02:37.601Z,100046.75
2024-01-05T23:05:06.545Z,100041.50
2024-01-05T23:07:35.056Z,100042.91
2024-01-05T23:10:08.024Z,100044.09
2024-01-05T23:12:37.684Z,100051.03
2024-01-05T23:15:12.671Z,100051.69
2024-01-05T23:17:49.974Z,100046.81
2024-01-05T23:20:28.471Z,100056.06
2024-01-05T23:23:05.589Z,100063.59
2024-01-05T23:25:37.826Z,100059.72
2024-01-05T23:28:10.250Z,100062.44
2024-01-05T23:30:38.647Z,100069.00
2024-01-05T23:33:10.009Z,100064.78
2024-01-05T23:35:38.673Z,100070.78
2024-01-05T23:38:07.635Z,100065.38
2024-01-05T23:40:35.889Z,100068.28
2024-01-05T23:43:11.505Z,100074.94
2024-01-05T23:45:52.739Z,100070.47
2024-01-05T23:48:24.425Z,100070.78
2024-01-05T23:50:59.045Z,100066.94
2024-01-05T23:53:27.564Z,100072.03
2024-01-05T23:55:58.911Z,100076.78
2024-01-05T23:58:28.564Z,100075.41
